Weather reports worldwide

Advertisment
Glasgow/Intl, United Kingdom (3140): temperature & dewpoint: 09.12.2019 17:00:00 - 15.12.2019 17:00:00 (GMT)Glasgow/Intl, United Kingdom (3140): wind speed: 09.12.2019 17:00:00 - 15.12.2019 17:00:00 (GMT)Glasgow/Intl, United Kingdom (3140): wind direction: 09.12.2019 17:00:00 - 15.12.2019 17:00:00 (GMT)Glasgow/Intl, United Kingdom (3140): visibility: 09.12.2019 17:00:00 - 15.12.2019 17:00:00 (GMT)
Date & Time tt [°C] td [°C] ff [km/h] ff [kn] dd vv [km]
15.12.2019 17:00:00 3,0 1,0 11 6 S 10
15.12.2019 16:00:00 3,0 2,0 13 7 SSE 10
15.12.2019 15:00:00 4,0 2,0 16 9 SW 10
15.12.2019 14:00:00 5,0 2,0 29 16 SW 10
15.12.2019 13:00:00 5,0 2,0 22 12 SSW 10
15.12.2019 12:00:00 5,0 3,0 18 10 WSW 10
15.12.2019 11:00:00 3,0 2,0 13 7 WSW 10
15.12.2019 10:00:00 3,0 2,0 8 4 WSW 10
15.12.2019 09:00:00 2,0 1,0 4 2 - 10
15.12.2019 08:00:00 2,0 1,0 9 5 SW 10
15.12.2019 07:00:00 2,0 1,0 13 7 SW 4,9
15.12.2019 06:00:00 2,0 0,0 13 7 S 10
15.12.2019 05:00:00 2,0 0,0 15 8 SW 10
15.12.2019 04:00:00 2,0 1,0 18 10 SW 10
15.12.2019 03:00:00 2,0 1,0 8 4 W 10
15.12.2019 02:00:00 2,0 0,0 13 7 SW 10
15.12.2019 01:00:00 3,0 1,0 8 4 SSE 10
15.12.2019 00:00:00 3,0 2,0 28 15 WSW 10
14.12.2019 23:00:00 3,0 2,0 31 17 SW 10
14.12.2019 22:00:00 3,0 2,0 35 19 SW 10
14.12.2019 21:00:00 3,0 2,0 31 17 WSW 3,6
14.12.2019 20:00:00 3,0 2,0 46 25 SW 4,1
14.12.2019 19:00:00 4,0 2,0 46 25 SW 5
14.12.2019 18:00:00 3,0 2,0 29 16 WSW 6
14.12.2019 17:00:00 4,0 2,0 28 15 SW 3,5
14.12.2019 16:00:00 4,0 2,0 41 22 SW 10
14.12.2019 15:00:00 4,0 2,0 34 18 SW 10
14.12.2019 14:00:00 4,0 2,0 15 8 WSW 10
14.12.2019 13:00:00 5,0 2,0 37 20 SW 10
14.12.2019 12:00:00 5,0 2,0 35 19 SW 10
14.12.2019 11:00:00 5,0 2,0 34 18 SW 10
14.12.2019 10:00:00 3,0 2,0 26 14 SSW 10
14.12.2019 09:00:00 3,0 2,0 16 9 SSW 3,4
14.12.2019 08:00:00 4,0 2,0 24 13 WSW 5
14.12.2019 07:00:00 4,0 2,0 26 14 WSW 10
14.12.2019 06:00:00 4,0 3,0 26 14 WSW 10
14.12.2019 05:00:00 4,0 2,0 11 6 SW 10
14.12.2019 04:00:00 4,0 3,0 15 8 W 10
14.12.2019 03:00:00 4,0 3,0 24 13 WSW 10
14.12.2019 02:00:00 4,0 3,0 8 4 WSW 10
14.12.2019 01:00:00 3,0 3,0 9 5 WSW 10
14.12.2019 00:00:00 3,0 2,0 8 4 WSW 10
13.12.2019 23:00:00 3,0 2,0 9 5 WSW 6
13.12.2019 22:00:00 2,0 2,0 5 3 SSE 8
13.12.2019 21:00:00 1,0 1,0 2 1 E 10
13.12.2019 20:00:00 0,0 0,0 4 2 - 10
13.12.2019 19:00:00 1,0 1,0 2 1 - 10
13.12.2019 18:00:00 2,0 1,0 4 2 - 10
13.12.2019 17:00:00 3,0 1,0 11 6 WSW 10
13.12.2019 16:00:00 3,0 2,0 9 5 W 10
13.12.2019 15:00:00 5,0 3,0 18 10 WNW 10
13.12.2019 14:00:00 6,0 3,0 15 8 W 10
13.12.2019 13:00:00 6,0 3,0 11 6 W 10
13.12.2019 12:00:00 5,0 3,0 15 8 W 10
13.12.2019 11:00:00 3,0 2,0 13 7 W 10
13.12.2019 10:00:00 2,0 1,0 11 6 WSW 10
13.12.2019 09:00:00 0,0 0,0 13 7 WSW 10
13.12.2019 08:00:00 0,0 0,0 5 3 WSW 10
13.12.2019 07:00:00 1,0 1,0 11 6 WSW 10
13.12.2019 06:00:00 2,0 1,0 8 4 W 10
13.12.2019 05:00:00 2,0 2,0 13 7 WSW 10
13.12.2019 04:00:00 2,0 1,0 11 6 WSW 10
13.12.2019 03:00:00 3,0 2,0 11 6 W 10
13.12.2019 02:00:00 3,0 3,0 8 4 W 10
13.12.2019 01:00:00 3,0 3,0 11 6 WNW 10
13.12.2019 00:00:00 3,0 3,0 8 4 W 7
12.12.2019 23:00:00 3,0 2,0 5 3 W 9
12.12.2019 22:00:00 3,0 2,0 4 2 WNW 10
12.12.2019 21:00:00 3,0 3,0 4 2 NNW 7
12.12.2019 20:00:00 4,0 3,0 8 4 ENE 8
12.12.2019 19:00:00 4,0 3,0 9 5 E 10
12.12.2019 18:00:00 4,0 2,0 16 9 ENE 10
12.12.2019 17:00:00 4,0 2,0 18 10 ENE 10
12.12.2019 16:00:00 4,0 3,0 16 9 ENE 10
12.12.2019 15:00:00 4,0 3,0 16 9 ENE 10
12.12.2019 14:00:00 5,0 3,0 15 8 ENE 10
12.12.2019 13:00:00 5,0 3,0 11 6 ENE 10
12.12.2019 12:00:00 5,0 3,0 9 5 E 10
12.12.2019 11:00:00 4,0 3,0 11 6 NE 10
12.12.2019 10:00:00 4,0 2,0 11 6 E 10
12.12.2019 09:00:00 3,0 2,0 11 6 E 10
12.12.2019 08:00:00 3,0 1,0 13 7 SE 10
12.12.2019 07:00:00 4,0 2,0 8 4 SE 10
12.12.2019 06:00:00 3,0 2,0 4 2 - 4,9
12.12.2019 05:00:00 3,0 2,0 13 7 S 6
12.12.2019 04:00:00 4,0 1,0 18 10 S 10
12.12.2019 03:00:00 4,0 2,0 18 10 S 10
12.12.2019 02:00:00 4,0 2,0 16 9 SSW 10
12.12.2019 01:00:00 3,0 2,0 9 5 WNW 10
12.12.2019 00:00:00 4,0 3,0 24 13 SW 10
11.12.2019 23:00:00 4,0 2,0 22 12 W 8
11.12.2019 22:00:00 4,0 2,0 28 15 SSW 10
11.12.2019 21:00:00 4,0 2,0 26 14 SW 10
11.12.2019 20:00:00 4,0 1,0 31 17 SW 10
11.12.2019 19:00:00 4,0 2,0 24 13 SSW 10
11.12.2019 18:00:00 4,0 2,0 31 17 SSW 10
11.12.2019 17:00:00 4,0 2,0 28 15 SW 10
11.12.2019 16:00:00 4,0 2,0 24 13 SW 10
11.12.2019 15:00:00 5,0 2,0 31 17 WSW 10
11.12.2019 14:00:00 6,0 3,0 29 16 SW 10
11.12.2019 13:00:00 5,0 2,0 35 19 SW 10
11.12.2019 12:00:00 6,0 2,0 35 19 SW 10
11.12.2019 11:00:00 5,0 2,0 31 17 SW 10
11.12.2019 10:00:00 5,0 2,0 31 17 SW 10
11.12.2019 09:00:00 5,0 2,0 28 15 SW 10
11.12.2019 08:00:00 5,0 2,0 41 22 SW 10
11.12.2019 07:00:00 5,0 2,0 41 22 SW 10
11.12.2019 06:00:00 6,0 2,0 31 17 SSW 10
11.12.2019 05:00:00 5,0 2,0 35 19 SW 10
11.12.2019 04:00:00 5,0 2,0 41 22 SW 10
11.12.2019 03:00:00 5,0 3,0 29 16 SW 10
11.12.2019 02:00:00 5,0 3,0 28 15 SW 10
11.12.2019 01:00:00 5,0 2,0 16 9 SW 10
11.12.2019 00:00:00 5,0 3,0 24 13 SW 10
10.12.2019 23:00:00 5,0 2,0 15 8 W 10
10.12.2019 22:00:00 6,0 3,0 37 20 SW 10
10.12.2019 21:00:00 6,0 3,0 35 19 SW 10
10.12.2019 20:00:00 6,0 4,0 28 15 WSW 10
10.12.2019 19:00:00 7,0 3,0 34 18 WSW 10
10.12.2019 18:00:00 7,0 4,0 31 17 WSW 10
10.12.2019 17:00:00 6,0 5,0 26 14 W 10
10.12.2019 16:00:00 7,0 5,0 31 17 WSW 10
10.12.2019 15:00:00 8,0 6,0 37 20 W 10
10.12.2019 14:00:00 13,0 11,0 55 30 SSW 6
10.12.2019 13:00:00 12,0 11,0 44 24 SSW 2,7
10.12.2019 12:00:00 12,0 11,0 52 28 S 6
10.12.2019 11:00:00 12,0 10,0 41 22 SSW 10
10.12.2019 10:00:00 11,0 9,0 39 21 S 7
10.12.2019 09:00:00 10,0 9,0 37 20 S 9
10.12.2019 08:00:00 10,0 9,0 37 20 S 7
10.12.2019 07:00:00 9,0 8,0 35 19 S 8
10.12.2019 06:00:00 9,0 7,0 34 18 S 9
10.12.2019 05:00:00 8,0 7,0 35 19 S 3,8
10.12.2019 04:00:00 9,0 5,0 39 21 S 10
10.12.2019 03:00:00 8,0 4,0 24 13 S 10
10.12.2019 02:00:00 7,0 4,0 16 9 S 10
10.12.2019 01:00:00 6,0 3,0 16 9 SSE 10
10.12.2019 00:00:00 6,0 3,0 16 9 SSE 10
09.12.2019 23:00:00 6,0 3,0 24 13 S 10
09.12.2019 22:00:00 6,0 3,0 15 8 S 10
09.12.2019 21:00:00 3,0 2,0 5 3 - 10
09.12.2019 20:00:00 2,0 1,0 8 4 NE 10
09.12.2019 19:00:00 2,0 1,0 4 2 - 10
09.12.2019 18:00:00 2,0 0,0 4 2 - 10
09.12.2019 17:00:00 2,0 0,0 8 4 WSW 10

tt = temperature
td = dewpoint
ff = wind speed
dd = wind direction
vv = visibility

Next stations